Terminal Aerodrome Forecast
Issued by NWS

Home | Current Version | Previous Version | Text Only | Print | Product List | Glossary On
Versions: 1 2 3 4 5 6 7 8 9 10 11 12 13 14 15 16 17 18 19 20 21 22 23 24 25 26 27 28 29 30 31 32 33 34
000
FTUS43 KPAH 192324
TAFOWB
TAF
KOWB 192324Z 2000/2024 21010KT P6SM OVC040
      TEMPO 2000/2002 5SM -SHRA BR BKN014
     FM200400 20009KT P6SM VCSH OVC060
      TEMPO 2005/2009 3SM -TSRA BR BKN035CB
     FM201100 25010KT 4SM BR SCT025 OVC035
     FM201400 27014G24KT P6SM BKN050
     FM202300 28010G20KT P6SM SCT050=

USA.gov is the U.S. government's official web portal to all federal, state and local government web resources and services.